Time;durP1;ratioP1;P1;durP2;ratioP2;P2;SDS_P1;SDS_P2;PMS_P1;PMS_P2;Temp;Humidity;BMP_temperature;BMP_pressure;BME280_temperature;BME280_humidity;BME280_pressure;Samples;Min_cycle;Max_cycle;Signal;HPM_P1;HPM_P2
2023/09/13 00:00:31;;;;;;;14.45;6.15;;;17.50;99.90;;;;;;5065020;28;20571;-37
2023/09/13 00:02:57;;;;;;;7.20;5.57;;;17.40;99.90;;;;;;5058406;28;20046;-37
2023/09/13 00:05:23;;;;;;;7.90;6.00;;;17.40;99.90;;;;;;5046417;28;20089;-37
2023/09/13 00:07:50;;;;;;;6.75;5.43;;;17.50;99.90;;;;;;5061293;28;20085;-40
2023/09/13 00:10:18;;;;;;;5.68;5.07;;;17.60;99.90;;;;;;5045926;28;20561;-38
2023/09/13 00:12:44;;;;;;;8.20;5.28;;;17.50;99.90;;;;;;5077612;28;20021;-40
2023/09/13 00:15:11;;;;;;;6.68;5.57;;;17.60;99.90;;;;;;5059193;28;20082;-41
2023/09/13 00:17:38;;;;;;;7.13;5.35;;;17.60;99.90;;;;;;5047936;28;20128;-39
2023/09/13 00:20:07;;;;;;;7.07;5.65;;;17.60;99.90;;;;;;5066559;28;20461;-39
2023/09/13 00:23:01;;;;;;;8.82;5.68;;;17.60;99.90;;;;;;5044662;28;20033;-38
2023/09/13 00:25:30;;;;;;;6.40;5.25;;;17.50;99.90;;;;;;5040553;28;20063;-38
2023/09/13 00:27:57;;;;;;;6.68;4.93;;;17.40;99.90;;;;;;5046570;28;20055;-39
2023/09/13 00:30:23;;;;;;;7.07;5.70;;;17.50;99.90;;;;;;5045141;28;20021;-40
2023/09/13 00:32:48;;;;;;;8.27;5.47;;;17.40;99.90;;;;;;5043121;28;20075;-40
2023/09/13 00:35:14;;;;;;;7.72;6.07;;;17.40;99.90;;;;;;5045617;28;20029;-39
2023/09/13 00:37:40;;;;;;;6.70;5.55;;;17.50;99.90;;;;;;5036057;28;20042;-38
2023/09/13 00:40:07;;;;;;;7.03;5.60;;;17.60;99.90;;;;;;5032028;28;20135;-37
2023/09/13 00:42:33;;;;;;;7.28;5.95;;;17.60;99.90;;;;;;5035770;28;20053;-40
2023/09/13 00:44:59;;;;;;;9.02;5.63;;;17.70;99.90;;;;;;5044819;28;20033;-37
2023/09/13 00:47:24;;;;;;;7.82;5.32;;;17.60;99.90;;;;;;5048710;28;20079;-40
2023/09/13 00:49:50;;;;;;;8.57;5.15;;;17.50;99.90;;;;;;5048161;28;20033;-40
2023/09/13 00:52:16;;;;;;;7.72;5.57;;;17.50;99.90;;;;;;5047004;28;20035;-40
2023/09/13 00:54:42;;;;;;;7.30;5.43;;;17.60;99.90;;;;;;5041024;28;20052;-39
2023/09/13 00:57:10;;;;;;;7.10;5.50;;;17.60;99.90;;;;;;5043299;28;20076;-40
2023/09/13 00:59:35;;;;;;;6.90;5.55;;;17.70;99.90;;;;;;5047093;28;20035;-39
2023/09/13 01:02:01;;;;;;;7.97;5.38;;;17.70;99.90;;;;;;5050316;28;20033;-37
2023/09/13 01:04:27;;;;;;;6.60;5.03;;;17.70;99.90;;;;;;5043973;28;20029;-38
2023/09/13 01:06:53;;;;;;;7.43;5.75;;;17.70;99.90;;;;;;5047426;28;20017;-40
2023/09/13 01:09:18;;;;;;;7.60;5.47;;;17.60;99.90;;;;;;5045409;28;20029;-40
2023/09/13 01:11:44;;;;;;;6.28;4.70;;;17.50;99.90;;;;;;5050342;28;20029;-39
2023/09/13 01:14:10;;;;;;;8.05;5.22;;;17.40;99.90;;;;;;5046121;28;20029;-39
2023/09/13 01:17:00;;;;;;;6.03;5.43;;;17.30;99.90;;;;;;5046185;28;20551;-39
2023/09/13 01:19:41;;;;;;;7.15;5.03;;;17.30;99.90;;;;;;5044251;28;20417;-38
2023/09/13 01:22:45;;;;;;;8.43;5.10;;;17.30;99.90;;;;;;5046335;28;20040;-38
2023/09/13 01:25:22;;;;;;;7.38;4.68;;;17.30;99.90;;;;;;5045206;28;20517;-40
2023/09/13 01:28:25;;;;;;;6.07;4.95;;;17.20;99.90;;;;;;5048614;28;20017;-40
2023/09/13 01:30:51;;;;;;;6.95;4.95;;;17.30;99.90;;;;;;5047135;28;20036;-39
2023/09/13 01:33:17;;;;;;;6.15;4.72;;;17.20;99.90;;;;;;5040919;28;20544;-40
2023/09/13 01:35:43;;;;;;;7.53;5.03;;;17.30;99.90;;;;;;5042849;28;20025;-38
2023/09/13 01:38:09;;;;;;;6.60;4.55;;;17.30;99.90;;;;;;5041168;28;20128;-39
2023/09/13 01:40:39;;;;;;;6.10;4.80;;;17.30;99.90;;;;;;5041851;28;20123;-40
2023/09/13 01:43:06;;;;;;;6.78;4.90;;;17.40;99.90;;;;;;5050519;28;20449;-37
2023/09/13 01:45:34;;;;;;;8.45;5.55;;;17.30;99.90;;;;;;5044760;28;20036;-32
2023/09/13 01:48:03;;;;;;;6.25;5.15;;;17.50;99.90;;;;;;5046300;28;20104;-32
2023/09/13 01:50:31;;;;;;;5.30;4.68;;;17.50;99.90;;;;;;5041668;28;20552;-31
2023/09/13 01:52:57;;;;;;;7.78;5.22;;;17.40;99.90;;;;;;5041289;28;20680;-33
2023/09/13 01:55:23;;;;;;;7.80;5.00;;;17.40;99.90;;;;;;5041177;28;20094;-32
2023/09/13 01:57:50;;;;;;;5.95;5.22;;;17.40;99.90;;;;;;5042757;28;20119;-33
2023/09/13 02:00:16;;;;;;;5.82;5.22;;;17.40;99.90;;;;;;5041805;28;20036;-34
2023/09/13 02:02:42;;;;;;;8.13;5.20;;;17.50;99.90;;;;;;5039091;28;20060;-31
2023/09/13 02:05:08;;;;;;;6.38;4.78;;;17.40;99.90;;;;;;5042932;28;20041;-34
2023/09/13 02:07:34;;;;;;;5.35;4.80;;;17.40;99.90;;;;;;5056568;28;20021;-32
2023/09/13 02:09:59;;;;;;;7.35;5.32;;;17.50;99.90;;;;;;5043007;28;20083;-33
2023/09/13 02:12:25;;;;;;;5.47;4.75;;;17.50;99.90;;;;;;5044229;28;20024;-34
2023/09/13 02:14:53;;;;;;;8.80;5.30;;;17.60;99.90;;;;;;5024986;28;20065;-32
2023/09/13 02:17:19;;;;;;;6.38;4.40;;;17.60;99.90;;;;;;5038937;28;20029;-35
2023/09/13 02:19:52;;;;;;;6.40;4.57;;;17.60;99.90;;;;;;5042650;28;21163;-35
2023/09/13 02:22:17;;;;;;;9.55;5.07;;;17.70;99.90;;;;;;5040890;28;20029;-32
2023/09/13 02:24:44;;;;;;;6.38;4.60;;;17.60;99.90;;;;;;5041043;28;20040;-31
2023/09/13 02:27:10;;;;;;;8.05;4.70;;;17.60;99.90;;;;;;5038363;28;20021;-31
2023/09/13 02:29:37;;;;;;;6.50;4.90;;;17.60;99.90;;;;;;5038648;28;20022;-37
2023/09/13 02:32:03;;;;;;;6.68;4.50;;;17.60;99.90;;;;;;5039695;28;20526;-37
2023/09/13 02:34:29;;;;;;;6.93;4.30;;;17.60;99.90;;;;;;5067056;28;20025;-32
2023/09/13 02:36:56;;;;;;;6.95;4.60;;;17.70;99.90;;;;;;5040024;28;20044;-35
2023/09/13 02:39:38;;;;;;;6.68;4.70;;;17.70;99.90;;;;;;5038637;28;20044;-35
2023/09/13 02:42:06;;;;;;;7.25;4.80;;;17.60;99.90;;;;;;5040863;28;20031;-33
2023/09/13 02:44:33;;;;;;;8.77;5.53;;;17.60;99.90;;;;;;5040993;28;20478;-33
2023/09/13 02:47:00;;;;;;;7.35;4.60;;;17.70;99.90;;;;;;5036953;28;20041;-33
2023/09/13 02:49:27;;;;;;;6.28;4.55;;;17.60;99.90;;;;;;5057210;28;20642;-35
2023/09/13 02:51:54;;;;;;;5.40;4.47;;;17.60;99.90;;;;;;5057987;28;20037;-34
2023/09/13 02:54:20;;;;;;;7.80;5.00;;;17.60;99.90;;;;;;5025165;28;20029;-29
2023/09/13 02:56:49;;;;;;;7.03;4.63;;;17.60;99.90;;;;;;5044618;28;20033;-32
2023/09/13 02:59:15;;;;;;;7.30;4.32;;;17.50;99.90;;;;;;5043208;28;20039;-30
2023/09/13 03:01:42;;;;;;;5.88;4.20;;;17.50;99.90;;;;;;5036806;28;20402;-30
2023/09/13 03:04:07;;;;;;;7.70;4.68;;;17.60;99.90;;;;;;5044464;28;20037;-30
2023/09/13 03:06:33;;;;;;;5.55;4.57;;;17.70;99.90;;;;;;5047248;28;20386;-35
2023/09/13 03:08:58;;;;;;;5.93;4.03;;;17.60;99.90;;;;;;5044454;28;20073;-33
2023/09/13 03:11:24;;;;;;;6.35;4.22;;;17.70;99.90;;;;;;5041457;28;20656;-30
2023/09/13 03:13:50;;;;;;;7.05;4.00;;;17.70;99.90;;;;;;5041528;28;20029;-30
2023/09/13 03:16:17;;;;;;;7.00;3.95;;;17.70;99.90;;;;;;5041683;28;20064;-31
2023/09/13 03:18:43;;;;;;;5.45;4.30;;;17.70;99.90;;;;;;5056264;28;20376;-31
2023/09/13 03:21:10;;;;;;;7.40;4.60;;;17.70;99.90;;;;;;5046910;28;20036;-31
2023/09/13 03:23:37;;;;;;;8.55;4.43;;;17.70;99.90;;;;;;5050193;28;20056;-32
2023/09/13 03:26:21;;;;;;;8.35;4.30;;;17.70;99.90;;;;;;5043989;28;20029;-36
2023/09/13 03:28:51;;;;;;;8.63;4.22;;;17.60;99.90;;;;;;5048064;28;20025;-30
2023/09/13 03:31:18;;;;;;;6.95;4.43;;;17.60;99.90;;;;;;5049040;28;20501;-31
2023/09/13 03:33:45;;;;;;;6.60;4.17;;;17.70;99.90;;;;;;5044630;28;20090;-33
2023/09/13 03:36:12;;;;;;;6.35;4.22;;;17.60;99.90;;;;;;5047162;28;20288;-30
2023/09/13 03:38:39;;;;;;;5.90;4.30;;;17.70;99.90;;;;;;5065712;28;20064;-30
2023/09/13 03:41:11;;;;;;;5.38;4.65;;;17.70;99.90;;;;;;5047904;28;20037;-30
2023/09/13 03:43:37;;;;;;;6.60;4.47;;;17.70;99.90;;;;;;5051497;28;20730;-31
2023/09/13 03:46:05;;;;;;;7.30;3.85;;;17.70;99.90;;;;;;5047582;28;20028;-33
2023/09/13 03:48:35;;;;;;;4.77;3.80;;;17.70;99.90;;;;;;5043307;28;20065;-33
2023/09/13 03:51:01;;;;;;;5.72;3.85;;;17.70;99.90;;;;;;5028827;28;20283;-31
2023/09/13 03:53:27;;;;;;;5.13;4.07;;;17.70;99.90;;;;;;5028279;28;21967;-36
2023/09/13 03:55:54;;;;;;;5.15;3.58;;;17.60;99.90;;;;;;5026726;28;20119;-33
2023/09/13 03:58:21;;;;;;;7.20;4.25;;;17.60;99.90;;;;;;5025808;28;20040;-30
2023/09/13 04:00:47;;;;;;;5.63;3.63;;;17.50;99.90;;;;;;5029833;28;20095;-33
2023/09/13 04:03:14;;;;;;;7.85;4.18;;;17.50;99.90;;;;;;5035905;28;20513;-30
2023/09/13 04:05:40;;;;;;;5.65;4.00;;;17.50;99.90;;;;;;5046779;28;20041;-41
2023/09/13 04:08:06;;;;;;;6.18;3.60;;;17.40;99.90;;;;;;5047423;28;20033;-33
2023/09/13 04:10:31;;;;;;;4.35;3.92;;;17.30;99.90;;;;;;5047065;28;20482;-35
2023/09/13 04:12:57;;;;;;;6.72;4.00;;;17.20;99.90;;;;;;5048719;28;20558;-33
2023/09/13 04:15:23;;;;;;;5.97;4.25;;;17.30;99.90;;;;;;5047244;28;20090;-42
2023/09/13 04:17:48;;;;;;;7.25;4.53;;;17.20;99.90;;;;;;5046608;28;20516;-38
2023/09/13 04:20:14;;;;;;;6.85;4.60;;;17.20;99.90;;;;;;5043814;28;20035;-40
2023/09/13 04:22:39;;;;;;;7.30;4.75;;;17.20;99.90;;;;;;5048203;28;20021;-41
2023/09/13 04:25:06;;;;;;;5.57;4.80;;;17.10;99.90;;;;;;5047968;28;20119;-38
2023/09/13 04:27:32;;;;;;;7.95;4.63;;;17.20;99.90;;;;;;5050342;28;20029;-36
2023/09/13 04:29:57;;;;;;;7.93;4.97;;;17.20;99.90;;;;;;5045850;28;20035;-32
2023/09/13 04:32:24;;;;;;;6.72;4.53;;;17.30;99.90;;;;;;5023778;28;20037;-36
2023/09/13 04:34:50;;;;;;;6.88;4.22;;;17.30;99.90;;;;;;5035854;28;20082;-35
2023/09/13 04:37:16;;;;;;;5.25;4.13;;;17.30;99.90;;;;;;5041971;28;20570;-39
2023/09/13 04:39:42;;;;;;;7.15;4.82;;;17.30;99.90;;;;;;5044444;28;20116;-37
2023/09/13 04:42:07;;;;;;;8.30;4.43;;;17.30;99.90;;;;;;5054578;28;20064;-41
2023/09/13 04:44:33;;;;;;;8.63;4.93;;;17.30;99.90;;;;;;5044039;28;20406;-40
2023/09/13 04:47:02;;;;;;;8.60;4.90;;;17.20;99.90;;;;;;5044892;28;20467;-39
2023/09/13 04:49:28;;;;;;;7.80;4.40;;;17.20;99.90;;;;;;5039312;28;20343;-40
2023/09/13 04:51:54;;;;;;;5.95;4.55;;;17.30;99.90;;;;;;5047243;28;20027;-41
2023/09/13 04:54:23;;;;;;;5.97;4.57;;;17.30;99.90;;;;;;5041184;28;20055;-41
2023/09/13 04:56:49;;;;;;;6.32;4.80;;;17.30;99.90;;;;;;5043557;28;20025;-35
2023/09/13 04:59:15;;;;;;;8.32;4.80;;;17.20;99.90;;;;;;5045381;28;20071;-40
2023/09/13 05:01:41;;;;;;;8.07;5.13;;;17.20;99.90;;;;;;5041193;28;20034;-41
2023/09/13 05:04:06;;;;;;;7.68;4.32;;;17.30;99.90;;;;;;5044257;28;20854;-40
2023/09/13 05:06:32;;;;;;;6.30;4.50;;;17.20;99.90;;;;;;5043404;28;20029;-37
2023/09/13 05:08:58;;;;;;;5.35;4.28;;;17.20;99.90;;;;;;5044638;28;20070;-32
2023/09/13 05:11:24;;;;;;;8.45;4.90;;;17.30;99.90;;;;;;5041653;28;20037;-37
2023/09/13 05:13:50;;;;;;;7.97;4.40;;;17.30;99.90;;;;;;5046706;28;21012;-40
2023/09/13 05:16:19;;;;;;;5.75;4.35;;;17.30;99.90;;;;;;5045013;28;20111;-39
2023/09/13 05:18:48;;;;;;;9.40;4.90;;;17.30;99.90;;;;;;5048368;28;20033;-37
2023/09/13 05:21:14;;;;;;;5.43;4.28;;;17.30;99.90;;;;;;5048036;28;20550;-40
2023/09/13 05:23:39;;;;;;;6.30;4.35;;;17.20;99.90;;;;;;5045512;28;20032;-40
2023/09/13 05:26:05;;;;;;;5.97;4.63;;;17.20;99.90;;;;;;5046172;28;20040;-40
2023/09/13 05:28:34;;;;;;;6.82;4.38;;;17.20;99.90;;;;;;5043666;28;20036;-40
2023/09/13 05:31:00;;;;;;;7.97;4.45;;;17.30;99.90;;;;;;5035744;28;20032;-39
2023/09/13 05:33:26;;;;;;;9.55;4.60;;;17.30;99.90;;;;;;5036544;28;20048;-39
2023/09/13 05:35:52;;;;;;;8.70;5.45;;;17.30;99.90;;;;;;5029536;28;20033;-39
2023/09/13 05:38:18;;;;;;;6.97;4.85;;;17.40;99.90;;;;;;5039694;28;20406;-40
2023/09/13 05:40:43;;;;;;;6.45;4.50;;;17.40;99.90;;;;;;5044738;28;20605;-40
2023/09/13 05:43:10;;;;;;;6.68;4.55;;;17.40;99.90;;;;;;5044141;28;20060;-40
2023/09/13 05:45:35;;;;;;;6.78;4.85;;;17.40;99.90;;;;;;5043922;28;20403;-40
2023/09/13 05:48:02;;;;;;;5.45;4.68;;;17.40;99.90;;;;;;5049859;28;20025;-33
2023/09/13 05:50:28;;;;;;;8.02;4.70;;;17.50;99.90;;;;;;5041642;28;20025;-36
2023/09/13 05:52:54;;;;;;;7.30;5.10;;;17.40;99.90;;;;;;5046862;28;20032;-40
2023/09/13 05:55:20;;;;;;;6.72;4.70;;;17.50;99.90;;;;;;5043387;28;20029;-39
2023/09/13 05:57:46;;;;;;;6.35;4.63;;;17.50;99.90;;;;;;5048655;28;20440;-40
2023/09/13 06:00:13;;;;;;;6.97;5.10;;;17.60;99.90;;;;;;5046876;28;20045;-40
2023/09/13 06:02:38;;;;;;;8.07;5.45;;;17.60;99.90;;;;;;5046080;28;20490;-39
2023/09/13 06:05:05;;;;;;;6.70;4.85;;;17.60;99.90;;;;;;5043023;28;20341;-40
2023/09/13 06:07:30;;;;;;;6.28;4.50;;;17.60;99.90;;;;;;5048007;28;20044;-40
2023/09/13 06:09:58;;;;;;;8.65;5.05;;;17.70;99.90;;;;;;5044277;28;20029;-39
2023/09/13 06:12:24;;;;;;;7.85;5.22;;;17.70;99.90;;;;;;5045562;28;20130;-34
2023/09/13 06:14:51;;;;;;;8.98;4.97;;;17.70;99.90;;;;;;5043343;28;20040;-40
2023/09/13 06:17:17;;;;;;;10.25;4.68;;;17.70;99.90;;;;;;5046349;28;20117;-38
2023/09/13 06:19:43;;;;;;;7.68;4.50;;;17.80;99.90;;;;;;5046939;28;20119;-38
2023/09/13 06:22:08;;;;;;;5.35;4.55;;;17.80;99.90;;;;;;5038899;28;20667;-37
2023/09/13 06:24:34;;;;;;;4.97;4.22;;;17.90;99.90;;;;;;5045904;28;20370;-36
2023/09/13 06:27:00;;;;;;;7.65;5.07;;;18.00;99.90;;;;;;5047974;28;20045;-39
2023/09/13 06:29:25;;;;;;;6.78;4.97;;;18.10;99.90;;;;;;5045722;28;20036;-40
2023/09/13 06:31:54;;;;;;;5.13;4.35;;;18.20;99.90;;;;;;5043969;28;20057;-41
2023/09/13 06:34:20;;;;;;;7.15;4.80;;;18.30;99.90;;;;;;5040102;28;20033;-35
2023/09/13 06:36:49;;;;;;;6.53;4.88;;;18.30;99.90;;;;;;5041986;28;20083;-40
2023/09/13 06:39:15;;;;;;;6.55;5.05;;;18.40;99.90;;;;;;5047582;28;20041;-41
2023/09/13 06:41:40;;;;;;;8.48;4.85;;;18.50;99.90;;;;;;5043552;28;20030;-41
2023/09/13 06:44:09;;;;;;;6.05;4.70;;;18.60;99.90;;;;;;5045519;28;20049;-41
2023/09/13 06:46:36;;;;;;;7.70;5.50;;;18.70;99.90;;;;;;5046873;28;20064;-41
2023/09/13 06:49:03;;;;;;;6.05;4.60;;;18.80;99.90;;;;;;5049105;28;20033;-34
2023/09/13 06:51:29;;;;;;;8.10;5.45;;;18.80;99.90;;;;;;5048320;28;20041;-40
2023/09/13 06:53:54;;;;;;;8.35;5.18;;;18.90;99.90;;;;;;5045807;28;20468;-41
2023/09/13 06:56:20;;;;;;;8.73;4.90;;;19.00;99.90;;;;;;5046431;28;20029;-42
2023/09/13 06:58:45;;;;;;;8.32;5.47;;;19.00;99.90;;;;;;5052363;28;20049;-39
2023/09/13 07:01:12;;;;;;;9.35;5.53;;;19.10;99.90;;;;;;5049913;28;20064;-41
2023/09/13 07:03:38;;;;;;;6.85;5.50;;;19.10;99.90;;;;;;5052393;28;20036;-38
2023/09/13 07:06:04;;;;;;;8.63;5.32;;;19.20;99.90;;;;;;5047312;28;20154;-39
2023/09/13 07:08:30;;;;;;;6.25;5.30;;;19.30;99.90;;;;;;5052754;28;20025;-39
2023/09/13 07:10:56;;;;;;;10.70;5.40;;;19.40;99.90;;;;;;5050676;28;20068;-37
2023/09/13 07:13:21;;;;;;;8.15;5.28;;;19.40;99.90;;;;;;5047788;28;20025;-39
2023/09/13 07:15:48;;;;;;;7.88;5.07;;;19.50;99.90;;;;;;5049963;28;20036;-33
2023/09/13 07:18:14;;;;;;;7.03;5.07;;;19.50;99.90;;;;;;5049904;28;20479;-37
2023/09/13 07:20:40;;;;;;;6.78;4.80;;;19.50;99.90;;;;;;5052051;28;20025;-39
2023/09/13 07:23:05;;;;;;;5.97;4.95;;;19.50;99.90;;;;;;5050570;28;20035;-38
2023/09/13 07:25:31;;;;;;;7.88;4.60;;;19.60;99.90;;;;;;5049599;28;20043;-41
2023/09/13 07:27:57;;;;;;;7.70;4.80;;;19.50;99.90;;;;;;5049805;28;20103;-38
2023/09/13 07:30:23;;;;;;;7.85;5.10;;;19.60;99.90;;;;;;5049784;28;20043;-40
2023/09/13 07:32:49;;;;;;;7.75;4.90;;;19.70;99.90;;;;;;5050387;28;20017;-41
2023/09/13 07:35:15;;;;;;;6.68;4.65;;;19.80;99.90;;;;;;5052624;28;20032;-40
2023/09/13 07:37:40;;;;;;;7.40;4.90;;;19.90;99.90;;;;;;5045439;28;20098;-40
2023/09/13 07:40:07;;;;;;;7.00;5.03;;;19.90;99.90;;;;;;5047886;28;20028;-41
2023/09/13 07:42:32;;;;;;;7.47;5.20;;;20.00;99.90;;;;;;5044353;28;20120;-41
2023/09/13 07:44:59;;;;;;;7.05;5.00;;;20.10;99.90;;;;;;5046422;28;20100;-36
2023/09/13 07:47:27;;;;;;;6.60;4.88;;;20.20;99.90;;;;;;5064732;28;20029;-41
2023/09/13 07:49:53;;;;;;;7.15;5.20;;;20.20;99.90;;;;;;5047574;28;20025;-39
2023/09/13 07:52:18;;;;;;;5.63;4.93;;;20.20;99.90;;;;;;5052530;28;20039;-41
2023/09/13 07:54:44;;;;;;;6.35;4.57;;;20.20;99.90;;;;;;5050770;28;20021;-39
2023/09/13 07:57:10;;;;;;;7.65;5.20;;;20.30;99.90;;;;;;5049378;28;20028;-41
2023/09/13 07:59:36;;;;;;;6.65;4.80;;;20.40;99.90;;;;;;5052271;28;20029;-39
2023/09/13 08:02:02;;;;;;;7.32;5.13;;;20.30;99.90;;;;;;5063848;28;20505;-32
2023/09/13 08:04:27;;;;;;;7.57;5.13;;;20.40;99.90;;;;;;5048329;28;20456;-41
2023/09/13 08:06:53;;;;;;;5.63;4.32;;;20.50;99.90;;;;;;5046104;28;20540;-40
2023/09/13 08:09:18;;;;;;;6.70;5.38;;;20.50;99.90;;;;;;5045585;28;20056;-41
2023/09/13 08:11:48;;;;;;;7.18;5.00;;;20.50;99.90;;;;;;5045254;28;20537;-40
2023/09/13 08:14:14;;;;;;;7.78;5.38;;;20.60;99.90;;;;;;5051351;28;20044;-41
2023/09/13 08:16:40;;;;;;;8.13;5.05;;;20.60;99.90;;;;;;5049206;28;20389;-41
2023/09/13 08:19:08;;;;;;;7.32;5.18;;;20.60;99.90;;;;;;5060494;28;20453;-38
2023/09/13 08:21:33;;;;;;;7.60;5.00;;;20.60;99.90;;;;;;5047022;28;20062;-41
2023/09/13 08:23:59;;;;;;;6.85;5.05;;;20.70;99.90;;;;;;5049854;28;20071;-40
2023/09/13 08:26:25;;;;;;;6.85;5.10;;;20.70;99.90;;;;;;5049727;28;20555;-35
2023/09/13 08:28:51;;;;;;;7.45;5.35;;;20.80;99.90;;;;;;5048457;28;20078;-42
2023/09/13 08:31:17;;;;;;;7.85;5.60;;;20.90;99.90;;;;;;5048980;28;20519;-41
2023/09/13 08:33:43;;;;;;;7.85;5.50;;;20.90;99.90;;;;;;5047895;28;20009;-40
2023/09/13 08:36:09;;;;;;;7.68;5.43;;;21.00;99.90;;;;;;5049433;28;20040;-41
2023/09/13 08:38:34;;;;;;;7.30;5.10;;;21.10;99.90;;;;;;5045381;28;20029;-41
2023/09/13 08:41:02;;;;;;;6.60;4.82;;;21.30;99.90;;;;;;5044474;28;20086;-40
2023/09/13 08:43:28;;;;;;;;;;;21.40;99.90;;;;;;5051089;28;20088;-32
2023/09/13 08:45:54;;;;;;;5.45;4.35;;;21.50;99.90;;;;;;5050505;28;19920;-40
2023/09/13 08:48:21;;;;;;;6.43;5.20;;;21.40;99.90;;;;;;5046811;28;20025;-39
2023/09/13 08:50:50;;;;;;;5.95;5.18;;;21.20;99.90;;;;;;5045111;28;20036;-39
2023/09/13 08:53:16;;;;;;;5.90;4.93;;;21.20;99.90;;;;;;5046715;28;20098;-40
2023/09/13 08:55:44;;;;;;;7.18;5.50;;;21.40;99.90;;;;;;5051460;28;20035;-38
2023/09/13 08:58:10;;;;;;;7.78;5.18;;;21.40;99.90;;;;;;5047150;28;20111;-40
2023/09/13 09:00:39;;;;;;;7.78;5.20;;;21.40;99.90;;;;;;5046057;28;20040;-39
2023/09/13 09:03:05;;;;;;;6.18;5.10;;;21.50;99.90;;;;;;5044996;28;20120;-37
2023/09/13 09:05:32;;;;;;;7.10;5.03;;;21.50;99.90;;;;;;5049473;28;20542;-40
2023/09/13 09:08:00;;;;;;;5.75;4.60;;;21.30;99.90;;;;;;5044927;28;20025;-35
2023/09/13 09:10:26;;;;;;;6.70;5.03;;;21.30;99.90;;;;;;5048948;28;20036;-37
2023/09/13 09:12:56;;;;;;;6.00;4.88;;;21.40;99.90;;;;;;5049333;28;20028;-37
2023/09/13 09:15:24;;;;;;;7.03;4.88;;;21.40;99.90;;;;;;5048557;28;20047;-40
2023/09/13 09:17:51;;;;;;;5.97;4.80;;;21.40;99.90;;;;;;5045649;28;20832;-40
2023/09/13 09:20:20;;;;;;;7.20;5.27;;;21.40;99.90;;;;;;5048712;28;21022;-40
2023/09/13 09:22:46;;;;;;;7.13;5.35;;;21.50;99.90;;;;;;5048325;28;20848;-37
2023/09/13 09:25:13;;;;;;;5.88;5.28;;;21.50;99.90;;;;;;5047575;28;20127;-40
2023/09/13 09:27:40;;;;;;;6.80;5.30;;;21.50;99.90;;;;;;5045527;28;20561;-40
2023/09/13 09:30:07;;;;;;;9.73;5.60;;;21.40;99.90;;;;;;5047827;28;20029;-38
2023/09/13 09:32:37;;;;;;;7.80;5.23;;;21.30;99.90;;;;;;5048418;28;20056;-37
2023/09/13 09:35:05;;;;;;;5.03;4.50;;;21.30;99.90;;;;;;5046539;28;20056;-37
2023/09/13 09:37:34;;;;;;;7.05;5.15;;;21.40;99.90;;;;;;5040220;28;20032;-41
2023/09/13 09:40:01;;;;;;;7.20;5.38;;;21.50;99.90;;;;;;5046178;28;20033;-40
2023/09/13 09:42:29;;;;;;;7.30;5.07;;;21.40;99.90;;;;;;5049187;28;20049;-37
2023/09/13 09:44:55;;;;;;;6.25;4.43;;;21.50;99.90;;;;;;5046334;28;20812;-40
2023/09/13 09:47:21;;;;;;;6.03;4.82;;;21.50;99.90;;;;;;5045430;28;20028;-39
2023/09/13 09:49:48;;;;;;;7.03;5.13;;;21.60;99.90;;;;;;5051495;28;20402;-39
2023/09/13 09:52:15;;;;;;;7.30;5.43;;;21.80;99.90;;;;;;5047573;28;20032;-40
2023/09/13 09:54:46;;;;;;;6.28;5.47;;;21.80;99.90;;;;;;5049125;28;20111;-41
2023/09/13 09:57:22;;;;;;;7.03;5.00;;;21.70;99.90;;;;;;5046803;28;20554;-40
2023/09/13 09:59:48;;;;;;;8.20;5.55;;;21.70;99.90;;;;;;5047686;28;20037;-40
2023/09/13 10:02:13;;;;;;;5.95;4.82;;;21.80;99.90;;;;;;5048545;28;20037;-41
2023/09/13 10:04:47;;;;;;;5.85;4.90;;;21.80;99.90;;;;;;5044272;28;20025;-40
2023/09/13 10:07:13;;;;;;;7.22;5.68;;;21.80;99.90;;;;;;5043670;28;22317;-39
2023/09/13 10:09:40;;;;;;;7.32;5.32;;;21.90;99.90;;;;;;5042788;28;20036;-40
2023/09/13 10:12:09;;;;;;;6.93;5.00;;;21.90;99.90;;;;;;5048748;28;20028;-39
2023/09/13 10:14:36;;;;;;;7.20;5.18;;;22.00;99.90;;;;;;5047065;28;20049;-37
2023/09/13 10:17:04;;;;;;;7.28;5.03;;;21.80;99.90;;;;;;5043642;28;20063;-37
2023/09/13 10:19:30;;;;;;;;;;;21.80;99.90;;;;;;5045663;28;20509;-40
2023/09/13 10:21:57;;;;;;;6.18;5.55;;;21.70;99.90;;;;;;5045822;28;19923;-39
2023/09/13 10:24:25;;;;;;;5.80;4.75;;;21.60;99.90;;;;;;5047121;28;20052;-39
2023/09/13 10:26:54;;;;;;;7.10;5.43;;;21.70;99.90;;;;;;5048062;28;20044;-40
2023/09/13 10:29:40;;;;;;;5.70;5.10;;;21.80;99.90;;;;;;5046283;28;20029;-37
2023/09/13 10:32:13;;;;;;;7.70;5.28;;;21.70;99.90;;;;;;5048317;28;20040;-39
2023/09/13 10:35:00;;;;;;;7.53;4.93;;;21.70;99.90;;;;;;5050520;28;20505;-40
2023/09/13 10:37:47;;;;;;;9.40;5.60;;;21.60;99.90;;;;;;5046372;28;20098;-39
2023/09/13 10:40:36;;;;;;;7.68;5.47;;;21.60;99.90;;;;;;5046878;28;20033;-39
2023/09/13 10:43:02;;;;;;;7.28;5.50;;;21.60;99.90;;;;;;5051191;28;20053;-34
2023/09/13 10:45:28;;;;;;;6.75;5.18;;;21.60;99.90;;;;;;5052122;28;20041;-39
2023/09/13 10:47:55;;;;;;;8.20;5.68;;;21.60;99.90;;;;;;5048708;28;20052;-40
2023/09/13 10:50:21;;;;;;;7.22;5.13;;;21.50;99.90;;;;;;5047143;28;20021;-40
2023/09/13 10:52:49;;;;;;;6.60;5.40;;;21.60;99.90;;;;;;5052171;28;20588;-39
2023/09/13 10:55:15;;;;;;;;;;;21.70;99.90;;;;;;5052778;28;20043;-40
2023/09/13 10:57:41;;;;;;;6.90;5.63;;;21.80;99.90;;;;;;5052255;28;19916;-38
2023/09/13 11:00:11;;;;;;;9.15;6.03;;;21.90;99.90;;;;;;5047293;28;20056;-40
2023/09/13 11:02:38;;;;;;;8.18;5.63;;;21.90;99.90;;;;;;5050164;28;20067;-40
2023/09/13 11:05:04;;;;;;;6.82;5.90;;;22.00;99.90;;;;;;5050630;28;20040;-39
2023/09/13 11:07:31;;;;;;;6.78;5.32;;;22.00;99.90;;;;;;5042164;28;20021;-39
2023/09/13 11:10:04;;;;;;;18.05;7.18;;;22.00;99.90;;;;;;5047630;28;20036;-34
2023/09/13 11:12:35;;;;;;;8.57;6.32;;;22.30;99.90;;;;;;5050553;28;20033;-41
2023/09/13 11:15:29;;;;;;;6.60;6.00;;;22.30;99.90;;;;;;5049766;28;20049;-33
2023/09/13 11:18:12;;;;;;;7.43;5.78;;;22.50;99.90;;;;;;5050995;28;20895;-30
2023/09/13 11:20:39;;;;;;;6.40;4.90;;;22.60;99.90;;;;;;5048232;28;20032;-30
2023/09/13 11:23:10;;;;;;;7.50;5.68;;;22.80;99.90;;;;;;5053280;28;20507;-30
2023/09/13 11:25:40;;;;;;;6.78;5.60;;;22.80;99.90;;;;;;5048817;28;20109;-34
2023/09/13 11:28:08;;;;;;;7.82;6.20;;;22.70;99.90;;;;;;5049531;28;20120;-36
2023/09/13 11:30:47;;;;;;;8.25;5.72;;;22.70;99.90;;;;;;5053839;28;20079;-30
2023/09/13 11:33:14;;;;;;;6.28;5.18;;;22.80;99.90;;;;;;5056965;28;20471;-30
2023/09/13 11:35:40;;;;;;;5.15;4.65;;;22.80;99.90;;;;;;5049730;28;20057;-32
2023/09/13 11:38:08;;;;;;;6.22;5.07;;;23.10;99.90;;;;;;5046691;28;20024;-32
2023/09/13 11:40:34;;;;;;;4.93;4.43;;;23.00;99.90;;;;;;5047172;28;20116;-31
2023/09/13 11:43:01;;;;;;;6.70;4.95;;;23.20;99.90;;;;;;5068907;28;20132;-36
2023/09/13 11:45:30;;;;;;;6.27;4.60;;;23.40;99.90;;;;;;5049893;28;20382;-30
2023/09/13 11:47:56;;;;;;;4.85;4.35;;;22.90;99.90;;;;;;5049501;28;20035;-33
2023/09/13 11:50:23;;;;;;;6.45;4.75;;;22.70;99.90;;;;;;5049133;28;20184;-30
2023/09/13 11:53:09;;;;;;;5.20;4.70;;;22.60;99.90;;;;;;5054382;28;20020;-30
2023/09/13 11:55:49;;;;;;;4.95;3.95;;;22.50;99.90;;;;;;5046937;28;20071;-30
2023/09/13 11:58:19;;;;;;;4.10;3.67;;;22.50;99.90;;;;;;5048908;28;20135;-29
2023/09/13 12:00:45;;;;;;;4.25;3.85;;;22.60;99.90;;;;;;5052977;28;20036;-32
2023/09/13 12:03:14;;;;;;;6.75;4.43;;;22.60;99.90;;;;;;5066287;28;20080;-30
2023/09/13 12:05:41;;;;;;;4.47;4.00;;;22.60;99.90;;;;;;5050264;28;20385;-32
2023/09/13 12:08:27;;;;;;;5.18;3.97;;;22.50;99.90;;;;;;5043720;28;20485;-31
2023/09/13 12:10:56;;;;;;;4.50;3.85;;;22.40;99.90;;;;;;5049419;28;20497;-30
2023/09/13 12:13:43;;;;;;;5.70;3.95;;;22.40;99.90;;;;;;5048637;28;20029;-40
2023/09/13 12:16:08;;;;;;;6.30;4.27;;;22.30;99.90;;;;;;5046145;28;20122;-31
2023/09/13 12:18:37;;;;;;;5.72;4.15;;;22.40;99.90;;;;;;5063126;28;20025;-29
2023/09/13 12:21:06;;;;;;;5.55;3.63;;;22.40;99.90;;;;;;5047673;28;21231;-35
2023/09/13 12:23:36;;;;;;;6.03;3.70;;;22.50;99.90;;;;;;5051825;28;20024;-32
2023/09/13 12:26:08;;;;;;;4.65;3.42;;;22.60;99.90;;;;;;5048039;28;20100;-35
2023/09/13 12:28:35;;;;;;;5.07;3.38;;;22.70;99.90;;;;;;5060577;28;20029;-32
2023/09/13 12:31:06;;;;;;;;;;;22.80;99.90;;;;;;5048857;28;20055;-34
2023/09/13 12:33:32;;;;;;;4.60;3.35;;;22.80;99.90;;;;;;5064232;28;19912;-32
2023/09/13 12:35:58;;;;;;;3.85;3.53;;;22.70;99.90;;;;;;5046263;28;20029;-34
2023/09/13 12:38:24;;;;;;;4.90;3.90;;;22.70;99.90;;;;;;5058115;28;20399;-32
2023/09/13 12:40:54;;;;;;;3.63;3.30;;;22.90;99.90;;;;;;5046694;28;20028;-32
2023/09/13 12:43:21;;;;;;;3.38;3.08;;;23.10;99.90;;;;;;5044910;28;20061;-32
2023/09/13 12:45:55;;;;;;;4.45;3.60;;;23.20;99.90;;;;;;5032230;28;20063;-35
2023/09/13 12:48:21;;;;;;;4.30;3.63;;;23.10;99.90;;;;;;5046587;28;20029;-32
2023/09/13 12:50:47;;;;;;;4.70;4.00;;;22.90;99.90;;;;;;5050436;28;20476;-33